createdAt,value
2022-10-07T00:00:55.076Z,13.15
2022-10-07T00:03:30.781Z,13.22
2022-10-07T00:06:13.840Z,13.29
2022-10-07T00:08:53.062Z,13.29
2022-10-07T00:11:22.846Z,12.97
2022-10-07T00:13:57.436Z,12.68
2022-10-07T00:16:38.705Z,12.89
2022-10-07T00:19:12.435Z,12.82
2022-10-07T00:21:40.823Z,13.34
2022-10-07T00:24:09.224Z,13.18
2022-10-07T00:26:40.305Z,13.01
2022-10-07T00:29:16.288Z,13.21
2022-10-07T00:31:46.770Z,12.51
2022-10-07T00:34:14.382Z,13.32
2022-10-07T00:36:44.946Z,13.23
2022-10-07T00:39:19.068Z,13.34
2022-10-07T00:41:53.133Z,13.40
2022-10-07T00:44:32.301Z,13.43
2022-10-07T00:47:07.507Z,13.39
2022-10-07T00:50:02.272Z,13.31
2022-10-07T00:52:36.703Z,13.29
2022-10-07T00:55:11.844Z,12.51
2022-10-07T00:57:44.126Z,13.44
2022-10-07T01:00:12.935Z,13.37
2022-10-07T01:02:41.028Z,13.38
2022-10-07T01:05:14.271Z,13.32
2022-10-07T01:07:46.134Z,13.30
2022-10-07T01:10:18.873Z,13.08
2022-10-07T01:13:23.979Z,13.31
2022-10-07T01:16:12.860Z,13.15
2022-10-07T01:19:13.224Z,13.32
2022-10-07T01:21:56.665Z,13.23
2022-10-07T01:24:55.843Z,13.42
2022-10-07T01:27:26.950Z,13.32
2022-10-07T01:30:08.331Z,13.26
2022-10-07T01:32:40.893Z,12.87
2022-10-07T01:35:18.325Z,13.14
2022-10-07T01:37:51.242Z,13.20
2022-10-07T01:40:33.636Z,12.60
2022-10-07T01:43:01.858Z,13.06
2022-10-07T01:45:31.224Z,12.51
2022-10-07T01:47:59.702Z,12.73
2022-10-07T01:50:29.814Z,12.80
2022-10-07T01:53:22.512Z,12.82
2022-10-07T01:55:55.585Z,12.75
2022-10-07T01:58:47.033Z,12.72
2022-10-07T02:01:50.610Z,12.73
2022-10-07T02:04:31.216Z,12.66
2022-10-07T02:07:16.341Z,12.62
2022-10-07T02:10:02.455Z,12.57
2022-10-07T02:12:35.575Z,12.62
2022-10-07T02:15:11.758Z,12.58
2022-10-07T02:17:43.866Z,12.58
2022-10-07T02:20:14.994Z,12.50
2022-10-07T02:22:45.298Z,12.58
2022-10-07T02:25:15.452Z,12.51
2022-10-07T02:27:55.640Z,12.60
2022-10-07T02:30:24.752Z,12.37
2022-10-07T02:32:59.132Z,12.14
2022-10-07T02:35:37.414Z,12.57
2022-10-07T02:38:10.106Z,12.55
2022-10-07T02:40:43.580Z,12.60
2022-10-07T02:43:23.358Z,12.13
2022-10-07T02:45:59.700Z,12.65
2022-10-07T02:48:32.603Z,12.62
2022-10-07T02:51:03.850Z,12.53
2022-10-07T02:53:33.519Z,12.56
2022-10-07T02:56:04.022Z,12.55
2022-10-07T02:58:31.483Z,12.51
2022-10-07T03:01:01.424Z,12.26
2022-10-07T03:03:30.557Z,12.50
2022-10-07T03:06:05.103Z,12.36
2022-10-07T03:08:33.319Z,11.60
2022-10-07T03:11:01.865Z,12.44
2022-10-07T03:13:31.323Z,12.30
2022-10-07T03:16:04.489Z,11.99
2022-10-07T03:18:32.552Z,12.14
2022-10-07T03:21:19.381Z,12.42
2022-10-07T03:23:52.753Z,12.18
2022-10-07T03:26:22.083Z,12.27
2022-10-07T03:28:49.708Z,12.26
2022-10-07T03:31:17.016Z,12.11
2022-10-07T03:33:48.305Z,12.18
2022-10-07T03:36:15.429Z,12.25
2022-10-07T03:38:45.124Z,12.02
2022-10-07T03:41:13.141Z,12.26
2022-10-07T03:43:40.391Z,12.27
2022-10-07T03:46:09.621Z,11.98
2022-10-07T03:48:38.237Z,12.14
2022-10-07T03:51:05.939Z,12.12
2022-10-07T03:53:38.317Z,12.23
2022-10-07T03:56:06.264Z,12.05
2022-10-07T03:58:33.883Z,12.11
2022-10-07T04:01:07.879Z,12.26
2022-10-07T04:03:37.046Z,11.87
2022-10-07T04:06:04.612Z,12.12
2022-10-07T04:08:34.478Z,12.17
2022-10-07T04:11:04.076Z,11.94
2022-10-07T04:13:32.472Z,11.88
2022-10-07T04:16:06.333Z,12.04
2022-10-07T04:18:33.379Z,12.24
2022-10-07T04:21:00.948Z,12.04
2022-10-07T04:23:29.684Z,12.09
2022-10-07T04:25:56.800Z,12.20
2022-10-07T04:28:26.361Z,12.23
2022-10-07T04:31:16.135Z,12.29
2022-10-07T04:33:46.604Z,12.17
2022-10-07T04:36:19.498Z,11.90
2022-10-07T04:39:00.301Z,12.34
2022-10-07T04:41:31.565Z,12.14
2022-10-07T04:43:58.587Z,12.39
2022-10-07T04:46:30.103Z,12.42
2022-10-07T04:49:05.294Z,12.32
2022-10-07T04:51:32.927Z,12.13
2022-10-07T04:54:01.348Z,12.38
2022-10-07T04:56:38.159Z,12.45
2022-10-07T04:59:07.846Z,12.38
2022-10-07T05:01:36.972Z,12.43
2022-10-07T05:04:04.439Z,12.57
2022-10-07T05:06:33.633Z,12.26
2022-10-07T05:09:01.009Z,12.75
2022-10-07T05:11:30.173Z,12.60
2022-10-07T05:14:03.598Z,12.85
2022-10-07T05:16:32.255Z,12.81
2022-10-07T05:18:59.854Z,12.59
2022-10-07T05:21:26.932Z,13.03
2022-10-07T05:23:54.054Z,13.03
2022-10-07T05:26:26.239Z,13.06
2022-10-07T05:28:57.877Z,13.13
2022-10-07T05:31:31.584Z,13.07
2022-10-07T05:34:02.279Z,12.80
2022-10-07T05:36:29.843Z,13.09
2022-10-07T05:38:59.184Z,13.08
2022-10-07T05:41:44.995Z,13.06
2022-10-07T05:44:14.451Z,13.19
2022-10-07T05:46:42.514Z,13.13
2022-10-07T05:49:10.175Z,13.12
2022-10-07T05:51:37.378Z,13.24
2022-10-07T05:54:05.656Z,13.20
2022-10-07T05:56:37.758Z,12.84
2022-10-07T05:59:05.043Z,12.91
2022-10-07T06:01:32.645Z,12.97
2022-10-07T06:04:07.003Z,12.88
2022-10-07T06:06:36.582Z,12.98
2022-10-07T06:09:26.239Z,13.60
2022-10-07T06:12:12.329Z,13.66
2022-10-07T06:14:39.946Z,13.75
2022-10-07T06:17:08.279Z,13.92
2022-10-07T06:19:37.723Z,14.15
2022-10-07T06:22:05.214Z,14.90
2022-10-07T06:24:35.296Z,15.06
2022-10-07T06:27:02.895Z,14.62
2022-10-07T06:29:30.701Z,14.99
2022-10-07T06:31:58.482Z,14.57
2022-10-07T06:34:26.092Z,14.64
2022-10-07T06:36:54.627Z,14.77
2022-10-07T06:39:21.627Z,14.71
2022-10-07T06:41:52.518Z,14.70
2022-10-07T06:44:39.725Z,14.39
2022-10-07T06:47:11.828Z,14.44
2022-10-07T06:49:41.303Z,14.36
2022-10-07T06:52:08.516Z,14.40
2022-10-07T06:54:36.408Z,14.50
2022-10-07T06:57:20.496Z,14.00
2022-10-07T06:59:51.728Z,14.32
2022-10-07T07:02:19.724Z,14.09
2022-10-07T07:08:17.423Z,14.86
2022-10-07T07:10:45.983Z,14.84
2022-10-07T07:13:14.611Z,14.69
2022-10-07T07:15:42.138Z,14.86
2022-10-07T07:18:10.720Z,14.58
2022-10-07T07:20:39.142Z,14.53
2022-10-07T07:23:09.606Z,14.61
2022-10-07T07:25:38.911Z,14.61
2022-10-07T07:28:08.050Z,14.51
2022-10-07T07:30:37.192Z,14.34
2022-10-07T07:33:05.456Z,13.80
2022-10-07T07:35:38.775Z,13.85
2022-10-07T07:38:06.135Z,14.29
2022-10-07T07:40:37.700Z,13.79
2022-10-07T07:43:06.027Z,14.24
2022-10-07T07:45:36.885Z,13.58
2022-10-07T07:48:04.994Z,14.18
2022-10-07T07:50:34.125Z,14.21
2022-10-07T07:53:04.520Z,14.34
2022-10-07T07:55:32.343Z,14.53
2022-10-07T07:57:59.617Z,15.35
2022-10-07T08:00:26.861Z,16.61
2022-10-07T08:03:02.673Z,17.74
2022-10-07T08:05:35.037Z,17.87
2022-10-07T08:08:03.437Z,17.94
2022-10-07T08:10:31.312Z,18.35
2022-10-07T08:12:59.150Z,18.56
2022-10-07T08:15:26.429Z,18.99
2022-10-07T08:17:54.027Z,18.77
2022-10-07T08:20:23.164Z,18.71
2022-10-07T08:22:52.670Z,18.57
2022-10-07T08:25:22.629Z,18.37
2022-10-07T08:27:50.725Z,17.89
2022-10-07T08:30:17.990Z,17.76
2022-10-07T08:32:45.679Z,17.40
2022-10-07T08:35:12.893Z,17.03
2022-10-07T08:37:41.098Z,16.74
2022-10-07T08:40:15.324Z,16.50
2022-10-07T08:42:44.132Z,16.12
2022-10-07T08:45:21.113Z,15.90
2022-10-07T08:47:51.558Z,15.61
2022-10-07T08:50:25.048Z,15.20
2022-10-07T08:53:00.210Z,15.47
2022-10-07T08:55:50.072Z,15.49
2022-10-07T08:58:58.044Z,15.23
2022-10-07T09:01:33.927Z,15.37
2022-10-07T09:04:17.269Z,15.42
2022-10-07T09:06:55.401Z,15.17
2022-10-07T09:09:40.197Z,15.54
2022-10-07T09:12:23.142Z,15.47
2022-10-07T09:14:55.135Z,15.67
2022-10-07T09:17:38.325Z,15.11
2022-10-07T09:20:17.833Z,15.78
2022-10-07T09:22:51.041Z,15.86
2022-10-07T09:25:24.329Z,16.12
2022-10-07T09:27:52.362Z,15.99
2022-10-07T09:30:21.259Z,16.01
2022-10-07T09:32:50.537Z,15.89
2022-10-07T09:35:22.171Z,15.74
2022-10-07T09:38:09.587Z,15.50
2022-10-07T09:40:36.521Z,15.75
2022-10-07T09:43:14.268Z,15.58
2022-10-07T09:45:47.077Z,15.47
2022-10-07T09:48:27.763Z,15.42
2022-10-07T09:51:27.728Z,15.59
2022-10-07T09:53:59.032Z,15.19
2022-10-07T09:56:39.626Z,15.34
2022-10-07T09:59:21.813Z,15.35
2022-10-07T10:01:55.904Z,15.14
2022-10-07T10:04:35.806Z,15.27
2022-10-07T10:07:16.918Z,15.36
2022-10-07T10:10:17.690Z,15.68
2022-10-07T10:12:56.338Z,15.64
2022-10-07T10:15:25.619Z,15.51
2022-10-07T10:17:54.864Z,15.57
2022-10-07T10:20:29.804Z,15.50
2022-10-07T10:22:58.214Z,15.44
2022-10-07T10:26:10.981Z,15.33
2022-10-07T10:28:49.931Z,15.33
2022-10-07T10:31:24.226Z,15.36
2022-10-07T10:34:05.437Z,15.54
2022-10-07T10:36:38.162Z,15.46
2022-10-07T10:39:35.349Z,15.64
2022-10-07T10:42:08.099Z,15.59
2022-10-07T10:44:34.968Z,15.73
2022-10-07T10:47:12.412Z,15.80
2022-10-07T10:49:45.572Z,15.84
2022-10-07T10:52:26.041Z,15.92
2022-10-07T10:55:18.085Z,15.91
2022-10-07T10:58:06.739Z,15.81
2022-10-07T11:00:58.861Z,15.66
2022-10-07T11:03:40.416Z,15.71
2022-10-07T11:06:14.242Z,15.40
2022-10-07T11:08:45.296Z,15.77
2022-10-07T11:11:19.138Z,15.62
2022-10-07T11:14:00.509Z,15.59
2022-10-07T11:16:38.633Z,15.00
2022-10-07T11:19:35.869Z,15.60
2022-10-07T11:22:03.780Z,14.28
2022-10-07T11:24:40.782Z,15.52
2022-10-07T11:27:16.998Z,15.53
2022-10-07T11:29:50.187Z,15.16
2022-10-07T11:32:24.190Z,15.52
2022-10-07T11:34:59.999Z,15.55
2022-10-07T11:37:38.775Z,15.48
2022-10-07T11:40:07.361Z,15.60
2022-10-07T11:42:43.130Z,15.62
2022-10-07T11:45:18.734Z,15.56
2022-10-07T11:48:01.513Z,15.40
2022-10-07T11:50:38.630Z,15.43
2022-10-07T11:53:17.583Z,15.41
2022-10-07T11:55:52.958Z,15.30
2022-10-07T11:58:37.258Z,15.32
2022-10-07T12:01:26.139Z,15.37
2022-10-07T12:04:14.342Z,15.27
2022-10-07T12:07:19.695Z,15.29
2022-10-07T12:10:05.119Z,15.19
2022-10-07T12:12:47.673Z,14.97
2022-10-07T12:15:42.290Z,15.31
2022-10-07T12:18:13.422Z,15.29
2022-10-07T12:20:55.021Z,15.35
2022-10-07T12:23:22.365Z,15.32
2022-10-07T12:26:04.372Z,15.32
2022-10-07T12:28:40.955Z,15.18
2022-10-07T12:31:17.955Z,15.18
2022-10-07T12:33:47.724Z,15.21
2022-10-07T12:36:27.790Z,15.26
2022-10-07T12:38:59.626Z,15.23
2022-10-07T12:41:26.568Z,15.23
2022-10-07T12:44:10.914Z,15.18
2022-10-07T12:46:37.863Z,15.19
2022-10-07T12:49:13.405Z,15.05
2022-10-07T12:51:41.283Z,15.08
2022-10-07T12:54:33.812Z,15.23
2022-10-07T12:57:02.733Z,14.78
2022-10-07T12:59:47.817Z,15.15
2022-10-07T13:02:52.446Z,15.20
2022-10-07T13:05:37.701Z,15.15
2022-10-07T13:08:29.251Z,15.16
2022-10-07T13:11:20.502Z,15.19
2022-10-07T13:13:59.167Z,15.02
2022-10-07T13:16:38.692Z,15.10
2022-10-07T13:19:15.709Z,15.15
2022-10-07T13:21:52.447Z,15.22
2022-10-07T13:24:24.789Z,14.92
2022-10-07T13:26:52.392Z,15.05
2022-10-07T13:29:27.930Z,15.00
2022-10-07T13:32:08.011Z,15.05
2022-10-07T13:34:35.444Z,14.95
2022-10-07T13:37:03.481Z,14.94
2022-10-07T13:39:30.814Z,14.21
2022-10-07T13:41:59.961Z,14.99
2022-10-07T13:44:30.504Z,14.96
2022-10-07T13:47:03.187Z,14.87
2022-10-07T13:49:35.405Z,14.48
2022-10-07T13:52:06.834Z,14.76
2022-10-07T13:54:34.501Z,14.80
2022-10-07T13:57:07.825Z,14.79
2022-10-07T13:59:37.500Z,14.24
2022-10-07T14:02:05.061Z,14.71
2022-10-07T14:04:34.798Z,14.68
2022-10-07T14:07:08.990Z,14.14
2022-10-07T14:09:56.576Z,13.72
2022-10-07T14:12:31.913Z,14.44
2022-10-07T14:15:21.409Z,14.36
2022-10-07T14:17:55.239Z,14.42
2022-10-07T14:20:25.840Z,14.19
2022-10-07T14:22:58.355Z,14.31
2022-10-07T14:25:48.638Z,14.29
2022-10-07T14:28:24.994Z,14.26
2022-10-07T14:31:25.941Z,14.23
2022-10-07T14:34:33.700Z,14.20
2022-10-07T14:37:18.114Z,13.65
2022-10-07T14:39:47.996Z,13.94
2022-10-07T14:42:27.761Z,14.02
2022-10-07T14:44:57.289Z,13.86
2022-10-07T14:47:28.151Z,13.82
2022-10-07T14:49:56.584Z,13.91
2022-10-07T14:52:31.043Z,13.53
2022-10-07T14:55:00.709Z,13.31
2022-10-07T14:57:27.685Z,13.96
2022-10-07T14:59:55.109Z,13.73
2022-10-07T15:02:22.588Z,13.85
2022-10-07T15:04:49.687Z,13.83
2022-10-07T15:07:17.598Z,13.03
2022-10-07T15:09:45.804Z,13.23
2022-10-07T15:12:15.258Z,13.62
2022-10-07T15:14:42.542Z,13.35
2022-10-07T15:17:13.153Z,13.46
2022-10-07T15:19:40.396Z,13.53
2022-10-07T15:22:08.776Z,13.52
2022-10-07T15:24:36.232Z,13.51
2022-10-07T15:27:03.402Z,12.60
2022-10-07T15:29:30.391Z,13.53
2022-10-07T15:31:57.390Z,13.05
2022-10-07T15:34:25.980Z,13.43
2022-10-07T15:36:52.914Z,13.45
2022-10-07T15:39:19.922Z,13.44
2022-10-07T15:41:46.878Z,13.32
2022-10-07T15:44:19.169Z,13.28
2022-10-07T15:46:48.738Z,13.23
2022-10-07T15:49:19.235Z,13.36
2022-10-07T15:51:46.928Z,13.09
2022-10-07T15:54:14.006Z,12.41
2022-10-07T15:56:42.397Z,13.14
2022-10-07T15:59:11.511Z,13.19
2022-10-07T16:01:38.466Z,13.22
2022-10-07T16:04:06.088Z,12.99
2022-10-07T16:06:35.670Z,12.97
2022-10-07T16:09:03.886Z,13.01
2022-10-07T16:11:33.145Z,12.92
2022-10-07T16:14:02.065Z,12.92
2022-10-07T16:16:31.498Z,13.09
2022-10-07T16:19:00.592Z,13.02
2022-10-07T16:21:33.125Z,12.79
2022-10-07T16:24:10.120Z,12.96
2022-10-07T16:26:37.637Z,13.06
2022-10-07T16:29:30.626Z,13.04
2022-10-07T16:31:59.174Z,12.38
2022-10-07T16:34:28.794Z,12.93
2022-10-07T16:36:57.214Z,13.00
2022-10-07T16:39:24.681Z,12.81
2022-10-07T16:41:52.487Z,12.83
2022-10-07T16:44:20.498Z,12.74
2022-10-07T16:46:48.539Z,12.93
2022-10-07T16:49:18.018Z,12.77
2022-10-07T16:51:46.702Z,12.37
2022-10-07T16:54:16.518Z,12.76
2022-10-07T16:56:47.934Z,12.87
2022-10-07T16:59:22.455Z,12.44
2022-10-07T17:01:52.222Z,12.12
2022-10-07T17:04:19.462Z,12.86
2022-10-07T17:06:46.740Z,12.37
2022-10-07T17:09:14.422Z,12.63
2022-10-07T17:11:42.146Z,12.81
2022-10-07T17:14:12.186Z,12.58
2022-10-07T17:16:58.333Z,12.76
2022-10-07T17:19:27.807Z,12.64
2022-10-07T17:21:56.661Z,12.27
2022-10-07T17:24:24.395Z,12.22
2022-10-07T17:26:55.323Z,12.68
2022-10-07T17:29:25.084Z,12.66
2022-10-07T17:31:52.585Z,12.42
2022-10-07T17:34:21.321Z,12.52
2022-10-07T17:36:49.280Z,12.56
2022-10-07T17:39:18.398Z,12.36
2022-10-07T17:41:45.464Z,12.41
2022-10-07T17:44:13.353Z,12.45
2022-10-07T17:46:41.786Z,12.18
2022-10-07T17:49:14.796Z,12.46
2022-10-07T17:51:43.468Z,12.45
2022-10-07T17:54:12.232Z,12.47
2022-10-07T17:56:39.626Z,12.47
2022-10-07T17:59:06.775Z,12.35
2022-10-07T18:01:35.228Z,12.46
2022-10-07T18:04:05.091Z,12.30
2022-10-07T18:06:34.549Z,12.40
2022-10-07T18:09:04.519Z,12.25
2022-10-07T18:11:51.282Z,12.11
2022-10-07T18:14:37.812Z,12.29
2022-10-07T18:17:06.353Z,12.20
2022-10-07T18:19:33.739Z,12.27
2022-10-07T18:22:03.114Z,11.82
2022-10-07T18:24:30.250Z,11.77
2022-10-07T18:26:59.289Z,12.18
2022-10-07T18:29:27.924Z,12.21
2022-10-07T18:31:55.100Z,12.23
2022-10-07T18:34:22.479Z,12.14
2022-10-07T18:36:55.227Z,12.28
2022-10-07T18:39:23.766Z,12.18
2022-10-07T18:41:51.212Z,12.07
2022-10-07T18:44:18.330Z,12.17
2022-10-07T18:46:45.643Z,12.08
2022-10-07T18:49:15.410Z,12.11
2022-10-07T18:51:43.189Z,12.07
2022-10-07T18:54:10.808Z,12.05
2022-10-07T18:56:41.062Z,12.00
2022-10-07T18:59:10.012Z,12.01
2022-10-07T19:01:38.008Z,12.09
2022-10-07T19:04:06.946Z,12.03
2022-10-07T19:06:36.975Z,11.93
2022-10-07T19:09:08.712Z,12.03
2022-10-07T19:11:36.216Z,11.87
2022-10-07T19:14:04.118Z,11.95
2022-10-07T19:16:36.854Z,11.96
2022-10-07T19:19:06.995Z,11.71
2022-10-07T19:21:35.992Z,11.88
2022-10-07T19:24:03.789Z,11.84
2022-10-07T19:26:35.202Z,11.83
2022-10-07T19:29:03.216Z,11.78
2022-10-07T19:31:36.576Z,11.90
2022-10-07T19:34:12.644Z,11.74
2022-10-07T19:36:42.445Z,11.75
2022-10-07T19:39:10.868Z,11.84
2022-10-07T19:41:38.428Z,11.81
2022-10-07T19:44:05.964Z,11.80
2022-10-07T19:46:33.742Z,11.79
2022-10-07T19:49:02.213Z,11.85
2022-10-07T19:51:30.971Z,11.85
2022-10-07T19:54:00.755Z,11.82
2022-10-07T19:56:31.314Z,11.58
2022-10-07T19:59:05.547Z,11.75
2022-10-07T20:01:38.167Z,11.76
2022-10-07T20:04:12.875Z,11.79
2022-10-07T20:06:41.100Z,11.58
2022-10-07T20:09:11.438Z,11.58
2022-10-07T20:11:38.550Z,11.63
2022-10-07T20:14:06.794Z,11.52
2022-10-07T20:16:34.953Z,11.68
2022-10-07T20:19:08.054Z,11.62
2022-10-07T20:21:37.692Z,11.71
2022-10-07T20:24:06.850Z,11.76
2022-10-07T20:26:36.478Z,11.07
2022-10-07T20:29:06.073Z,11.69
2022-10-07T20:31:35.576Z,11.68
2022-10-07T20:34:03.079Z,11.69
2022-10-07T20:36:35.217Z,11.52
2022-10-07T20:39:35.808Z,11.54
2022-10-07T20:42:21.370Z,10.58
2022-10-07T20:44:49.612Z,11.51
2022-10-07T20:47:17.931Z,11.57
2022-10-07T20:49:44.979Z,11.21
2022-10-07T20:52:16.921Z,11.58
2022-10-07T20:54:44.733Z,11.06
2022-10-07T20:57:13.151Z,11.16
2022-10-07T20:59:42.072Z,11.56
2022-10-07T21:02:14.500Z,11.52
2022-10-07T21:04:42.158Z,11.57
2022-10-07T21:07:09.424Z,11.24
2022-10-07T21:09:36.793Z,11.50
2022-10-07T21:12:07.509Z,11.42
2022-10-07T21:14:38.097Z,11.44
2022-10-07T21:17:06.337Z,11.42
2022-10-07T21:19:36.124Z,10.82
2022-10-07T21:22:05.151Z,11.08
2022-10-07T21:24:36.039Z,11.32
2022-10-07T21:27:05.728Z,11.29
2022-10-07T21:29:38.944Z,11.35
2022-10-07T21:32:08.384Z,11.17
2022-10-07T21:34:35.483Z,11.35
2022-10-07T21:37:02.887Z,10.90
2022-10-07T21:39:30.079Z,11.28
2022-10-07T21:41:58.172Z,11.24
2022-10-07T21:44:26.931Z,11.21
2022-10-07T21:46:53.915Z,11.33
2022-10-07T21:49:20.980Z,11.01
2022-10-07T21:51:48.186Z,11.30
2022-10-07T21:54:15.628Z,11.22
2022-10-07T21:56:46.188Z,11.36
2022-10-07T21:59:14.459Z,11.35
2022-10-07T22:01:42.744Z,10.84
2022-10-07T22:04:16.251Z,11.29
2022-10-07T22:07:01.696Z,11.17
2022-10-07T22:09:29.081Z,11.34
2022-10-07T22:11:57.153Z,11.29
2022-10-07T22:14:24.198Z,11.08
2022-10-07T22:16:51.219Z,11.33
2022-10-07T22:19:18.247Z,10.63
2022-10-07T22:21:45.995Z,11.26
2022-10-07T22:24:14.253Z,11.30
2022-10-07T22:26:46.111Z,11.30
2022-10-07T22:29:15.481Z,11.30
2022-10-07T22:31:43.068Z,11.26
2022-10-07T22:34:30.277Z,11.21
2022-10-07T22:37:00.031Z,11.03
2022-10-07T22:39:28.790Z,11.21
2022-10-07T22:41:59.940Z,10.99
2022-10-07T22:44:28.223Z,11.06
2022-10-07T22:46:56.591Z,11.17
2022-10-07T22:49:28.622Z,11.08
2022-10-07T22:51:58.337Z,10.76
2022-10-07T22:54:26.321Z,10.46
2022-10-07T22:56:53.291Z,11.09
2022-10-07T22:59:20.276Z,10.30
2022-10-07T23:01:47.254Z,11.07
2022-10-07T23:04:14.330Z,11.09
2022-10-07T23:06:41.375Z,11.07
2022-10-07T23:09:08.472Z,10.96
2022-10-07T23:11:35.510Z,11.04
2022-10-07T23:14:02.697Z,10.32
2022-10-07T23:16:30.280Z,10.59
2022-10-07T23:18:59.143Z,10.82
2022-10-07T23:21:28.649Z,10.99
2022-10-07T23:24:06.953Z,10.95
2022-10-07T23:26:35.850Z,10.91
2022-10-07T23:29:02.973Z,10.91
2022-10-07T23:31:32.319Z,10.85
2022-10-07T23:34:01.739Z,10.86
2022-10-07T23:36:29.472Z,10.61
2022-10-07T23:38:58.294Z,10.84
2022-10-07T23:41:29.555Z,10.78
2022-10-07T23:44:02.255Z,10.81
2022-10-07T23:46:33.204Z,10.17
2022-10-07T23:49:00.800Z,9.82
2022-10-07T23:51:28.990Z,10.74
2022-10-07T23:53:56.724Z,10.73
2022-10-07T23:56:24.030Z,10.58
2022-10-07T23:58:51.231Z,10.75
